Terminal Aerodrome Forecast
Issued by NWS North Platte, NE

Home | Current Version | Previous Version | Text Only | Print | Product List | Glossary Off
Versions: 1 2 3 4 5 6 7 8 9 10 11 12 13 14 15 16

259
FTUS43 KLBF 240820 AAA
TAFVTN
TAF AMD
KVTN 240820Z 2408/2506 29014G24KT P6SM VCSH OVC015
     FM241500 33019G27KT P6SM -RA OVC012
     FM242200 35014G24KT P6SM OVC012
     FM250100 35013G20KT P6SM OVC015
     FM250400 34009KT P6SM BKN020=

USA.gov is the U.S. government's official web portal to all federal, state and local government web resources and services.